Time;durP1;ratioP1;P1;durP2;ratioP2;P2;SDS_P1;SDS_P2;PMS_P1;PMS_P2;Temp;Humidity;BMP_temperature;BMP_pressure;BME280_temperature;BME280_humidity;BME280_pressure;Samples;Min_cycle;Max_cycle;Signal;HPM_P1;HPM_P2
2021/05/29 00:01:42;;;;;;;8.57;4.43;;;;;;;11.93;100.00;94823.94;10423425;28;20025;-83
2021/05/29 00:06:43;;;;;;;4.70;4.00;;;;;;;11.89;100.00;94806.72;10423818;28;20022;-83
2021/05/29 00:11:43;;;;;;;6.70;3.97;;;;;;;12.02;100.00;94818.81;10450722;28;20060;-83
2021/05/29 00:16:44;;;;;;;5.00;3.65;;;;;;;12.09;100.00;94814.72;10464171;28;20092;-81
2021/05/29 00:21:44;;;;;;;5.38;3.70;;;;;;;12.05;100.00;94810.97;10465221;28;20029;-84
2021/05/29 00:26:45;;;;;;;3.83;3.45;;;;;;;12.05;100.00;94808.28;10465512;28;20467;-83
2021/05/29 00:31:45;;;;;;;4.80;4.30;;;;;;;11.99;100.00;94822.06;10464222;28;20033;-84
2021/05/29 00:36:45;;;;;;;4.68;3.80;;;;;;;11.94;100.00;94809.44;10455032;28;20277;-83
2021/05/29 00:41:46;;;;;;;5.13;3.97;;;;;;;11.90;100.00;94806.47;10420163;28;20112;-84
2021/05/29 00:46:46;;;;;;;7.27;4.77;;;;;;;11.71;100.00;94806.31;10415986;28;20683;-83
2021/05/29 00:51:47;;;;;;;5.17;3.87;;;;;;;11.67;100.00;94809.84;10416950;28;20068;-83
2021/05/29 00:56:47;;;;;;;6.60;4.20;;;;;;;11.60;100.00;94804.78;10416745;28;20080;-83
2021/05/29 01:01:47;;;;;;;6.23;4.27;;;;;;;11.56;100.00;94804.50;10415702;28;20029;-83
2021/05/29 01:06:48;;;;;;;14.87;4.40;;;;;;;11.52;100.00;94800.75;10411547;28;20864;-83
2021/05/29 01:11:48;;;;;;;8.20;4.27;;;;;;;11.46;100.00;94799.97;10416317;28;20028;-83
2021/05/29 01:16:56;;;;;;;6.37;3.87;;;;;;;11.42;100.00;94800.81;10414599;28;20562;-83
2021/05/29 01:21:57;;;;;;;7.65;4.05;;;;;;;11.41;100.00;94791.97;10404033;28;20275;-83
2021/05/29 01:26:58;;;;;;;4.63;4.07;;;;;;;11.37;100.00;94798.16;10415100;28;20044;-83
2021/05/29 01:32:01;;;;;;;8.32;4.72;;;;;;;11.35;100.00;94790.34;10415220;28;20033;-83
2021/05/29 01:37:04;;;;;;;8.52;4.00;;;;;;;11.35;100.00;94793.03;10414186;28;20116;-83
2021/05/29 01:42:04;;;;;;;7.88;4.00;;;;;;;11.30;100.00;94790.38;10415382;28;20055;-82
2021/05/29 01:47:06;;;;;;;8.18;4.45;;;;;;;11.31;100.00;94783.13;10409671;28;20024;-83
2021/05/29 01:52:06;;;;;;;4.53;3.78;;;;;;;11.32;100.00;94787.44;10404759;28;20493;-82
2021/05/29 01:57:07;;;;;;;4.77;3.93;;;;;;;11.25;100.00;94791.22;10414077;28;20021;-82
2021/05/29 02:02:07;;;;;;;8.32;5.25;;;;;;;11.22;100.00;94791.75;10413481;28;20276;-83
2021/05/29 02:07:08;;;;;;;5.37;4.37;;;;;;;11.29;100.00;94794.97;10414276;28;20019;-82
2021/05/29 02:12:08;;;;;;;5.03;4.53;;;;;;;11.23;100.00;94789.88;10414103;28;20029;-82
2021/05/29 02:17:09;;;;;;;9.07;4.55;;;;;;;11.17;100.00;94802.53;10413768;28;20678;-83
2021/05/29 02:22:09;;;;;;;4.83;4.03;;;;;;;11.21;100.00;94798.22;10413871;28;20504;-82
2021/05/29 02:27:09;;;;;;;6.57;3.90;;;;;;;11.18;100.00;94792.59;10413868;28;20033;-83
2021/05/29 02:32:10;;;;;;;4.43;3.57;;;;;;;11.23;100.00;94800.63;10411939;28;20029;-83
2021/05/29 02:37:10;;;;;;;7.47;4.47;;;;;;;11.13;100.00;94800.69;10412816;28;20120;-83
2021/05/29 02:42:19;;;;;;;4.72;4.10;;;;;;;11.08;100.00;94805.00;10412887;28;20140;-83
2021/05/29 02:47:19;;;;;;;;;;;;;;;11.11;100.00;94800.94;10412981;28;20026;-83
2021/05/29 02:52:19;;;;;;;8.27;3.90;;;;;;;11.07;100.00;94800.69;10412407;28;19916;-83
2021/05/29 02:57:20;;;;;;;5.13;3.73;;;;;;;11.05;100.00;94796.66;10412054;28;20030;-83
2021/05/29 03:02:21;;;;;;;7.32;3.75;;;;;;;11.16;100.00;94805.50;10412389;28;20272;-82
2021/05/29 03:07:22;;;;;;;6.07;3.38;;;;;;;11.23;100.00;94806.84;10411964;28;20428;-82
2021/05/29 03:12:23;;;;;;;7.15;3.72;;;;;;;11.21;100.00;94811.66;10412388;28;20033;-83
2021/05/29 03:17:23;;;;;;;3.78;3.40;;;;;;;11.16;100.00;94808.97;10411898;28;20021;-83
2021/05/29 03:22:24;;;;;;;5.75;2.97;;;;;;;11.17;100.00;94818.69;10412177;28;20026;-82
2021/05/29 03:27:25;;;;;;;5.57;3.10;;;;;;;11.21;100.00;94818.94;10411095;28;20053;-83
2021/05/29 03:32:25;;;;;;;7.35;3.20;;;;;;;11.28;100.00;94808.69;10406119;28;20403;-83
2021/05/29 03:37:26;;;;;;;5.88;3.08;;;;;;;11.39;100.00;94817.53;10411148;28;20030;-83
2021/05/29 03:42:26;;;;;;;7.63;3.67;;;;;;;11.49;100.00;94812.09;10410324;28;20029;-83
2021/05/29 03:47:27;;;;;;;13.20;4.82;;;;;;;11.43;100.00;94810.50;10411466;28;20789;-82
2021/05/29 03:52:27;;;;;;;4.83;3.23;;;;;;;11.45;100.00;94813.72;10411253;28;20087;-83
2021/05/29 03:57:27;;;;;;;7.97;2.77;;;;;;;11.53;100.00;94805.06;10409639;28;20040;-83
2021/05/29 04:02:28;;;;;;;7.00;3.77;;;;;;;11.63;100.00;94807.69;10409676;28;20029;-83
2021/05/29 04:07:28;;;;;;;5.45;2.90;;;;;;;11.69;100.00;94819.25;10410974;28;20276;-82
2021/05/29 04:12:31;;;;;;;10.63;3.40;;;;;;;11.86;100.00;94818.06;10410934;28;20100;-82
2021/05/29 04:17:31;;;;;;;9.00;3.25;;;;;;;12.12;100.00;94816.03;10413932;28;20121;-82
2021/05/29 04:22:31;;;;;;;4.37;2.60;;;;;;;12.51;100.00;94817.88;10417131;28;20539;-82
2021/05/29 04:27:32;;;;;;;5.65;2.92;;;;;;;12.99;100.00;94822.53;10416911;28;20408;-83
2021/05/29 04:32:32;;;;;;;4.90;2.77;;;;;;;13.14;100.00;94818.88;10417706;28;20516;-84
2021/05/29 04:37:33;;;;;;;10.55;3.25;;;;;;;13.69;100.00;94823.94;10418236;28;20409;-83
2021/05/29 04:42:34;;;;;;;5.55;2.97;;;;;;;14.17;100.00;94815.66;10416136;28;20485;-82
2021/05/29 04:47:35;;;;;;;3.85;2.72;;;;;;;14.98;100.00;94819.25;10417436;28;20119;-83
2021/05/29 04:52:54;;;;;;;11.68;3.22;;;;;;;15.65;100.00;94804.41;10417030;28;20036;-83
2021/05/29 04:57:54;;;;;;;3.92;2.53;;;;;;;15.62;100.00;94810.44;10416714;28;20067;-84
2021/05/29 05:02:54;;;;;;;14.30;3.00;;;;;;;15.86;100.00;94812.91;10416951;28;20084;-83
2021/05/29 05:07:55;;;;;;;3.87;2.50;;;;;;;15.60;100.00;94820.75;10415365;28;20037;-83
2021/05/29 05:12:55;;;;;;;2.30;2.10;;;;;;;15.91;100.00;94822.84;10415147;28;20673;-82
2021/05/29 05:17:56;;;;;;;5.87;3.20;;;;;;;16.65;100.00;94819.75;10415073;28;20045;-82
2021/05/29 05:22:57;;;;;;;6.07;2.40;;;;;;;16.41;94.99;94817.38;10410247;28;20346;-82
2021/05/29 05:27:58;;;;;;;5.90;2.70;;;;;;;17.67;92.44;94818.16;10429074;28;20057;-83
2021/05/29 05:33:03;;;;;;;2.72;1.73;;;;;;;18.46;79.45;94818.28;10423653;28;20138;-79
2021/05/29 05:38:04;;;;;;;4.45;1.95;;;;;;;19.20;72.57;94815.56;10448046;28;20036;-79
2021/05/29 05:43:04;;;;;;;7.32;1.88;;;;;;;19.93;68.56;94814.63;10447348;28;20033;-80
2021/05/29 05:48:05;;;;;;;4.47;2.10;;;;;;;20.27;63.06;94818.22;10447291;28;20391;-79
2021/05/29 05:53:06;;;;;;;5.72;1.70;;;;;;;19.74;65.08;94815.81;10447386;28;20356;-79
2021/05/29 05:58:06;;;;;;;2.33;1.37;;;;;;;19.53;67.07;94823.16;10447565;28;20120;-79
2021/05/29 06:03:06;;;;;;;2.70;1.57;;;;;;;20.38;65.32;94821.34;10445619;28;20064;-79
2021/05/29 06:08:07;;;;;;;5.00;1.60;;;;;;;20.69;64.48;94814.69;10445852;28;20882;-79
2021/05/29 06:13:12;;;;;;;4.67;1.60;;;;;;;21.68;57.68;94812.97;10437393;28;20029;-78
2021/05/29 06:23:31;;;;;;;5.60;1.25;;;;;;;22.17;55.38;94812.91;10410748;28;20049;-82
2021/05/29 06:28:32;;;;;;;4.70;1.75;;;;;;;23.15;52.08;94800.00;10415500;28;20048;-84
2021/05/29 06:33:32;;;;;;;2.37;1.30;;;;;;;23.92;47.56;94791.66;10448110;28;20440;-84
2021/05/29 06:38:32;;;;;;;7.67;1.63;;;;;;;24.21;47.42;94784.84;10433229;28;20033;-84
2021/05/29 06:43:33;;;;;;;8.90;2.23;;;;;;;24.71;45.99;94779.63;10448756;28;20031;-86
2021/05/29 06:48:33;;;;;;;8.10;1.80;;;;;;;24.90;43.87;94779.59;10448650;28;20552;-85
2021/05/29 06:53:42;;;;;;;5.85;1.20;;;;;;;25.07;44.00;94767.34;10452651;28;20025;-87
2021/05/29 06:58:50;;;;;;;4.03;1.10;;;;;;;26.04;41.91;94765.41;10453215;28;20032;-86
2021/05/29 07:03:51;;;;;;;;;;;;;;;26.33;41.63;94771.31;10433301;28;20030;-85
2021/05/29 07:08:53;;;;;;;5.05;1.70;;;;;;;26.65;40.67;94764.59;10445858;28;19909;-85
2021/05/29 07:13:53;;;;;;;2.53;1.20;;;;;;;27.39;38.41;94761.06;10448432;28;20033;-83
2021/05/29 07:18:54;;;;;;;6.17;1.53;;;;;;;27.49;37.96;94761.53;10413674;28;20557;-83
2021/05/29 07:23:54;;;;;;;6.37;1.77;;;;;;;26.97;40.16;94762.19;10405244;28;20124;-81
2021/05/29 07:28:55;;;;;;;3.33;1.57;;;;;;;27.75;39.30;94757.78;10409312;28;20057;-83
2021/05/29 07:33:56;;;;;;;1.48;0.90;;;;;;;28.20;36.92;94750.22;10410928;28;20747;-83
2021/05/29 07:38:57;;;;;;;2.75;1.00;;;;;;;29.02;37.47;94751.72;10404950;28;20028;-83
2021/05/29 07:43:58;;;;;;;6.07;0.93;;;;;;;28.81;35.80;94752.44;10407179;28;20038;-83
2021/05/29 07:49:00;;;;;;;3.03;1.00;;;;;;;29.28;34.47;94750.59;10408910;28;20206;-83
2021/05/29 07:54:00;;;;;;;4.55;1.45;;;;;;;30.39;33.33;94743.34;10417202;28;20029;-83
2021/05/29 07:59:12;;;;;;;5.13;1.40;;;;;;;30.30;33.64;94735.47;10419539;28;20108;-83
2021/05/29 08:04:17;;;;;;;4.10;1.00;;;;;;;29.43;34.10;94736.75;10419592;28;20040;-83
2021/05/29 08:09:17;;;;;;;3.08;1.00;;;;;;;26.38;37.85;94737.88;10462982;28;20136;-82
2021/05/29 08:14:17;;;;;;;1.23;0.93;;;;;;;26.10;38.27;94735.56;10459949;28;20425;-82
2021/05/29 08:19:18;;;;;;;1.80;1.30;;;;;;;25.05;40.11;94733.91;10459327;28;20021;-82
2021/05/29 08:24:18;;;;;;;2.57;0.90;;;;;;;27.51;37.58;94720.53;10458340;28;20057;-82
2021/05/29 08:29:19;;;;;;;1.75;1.17;;;;;;;29.63;35.80;94721.31;10459096;28;20653;-83
2021/05/29 08:34:19;;;;;;;1.03;0.80;;;;;;;30.01;34.09;94723.69;10457942;28;20029;-81
2021/05/29 08:39:20;;;;;;;5.17;0.83;;;;;;;30.67;33.41;94708.41;10457448;28;20294;-81
2021/05/29 08:44:20;;;;;;;2.88;0.80;;;;;;;31.38;31.28;94709.16;10458438;28;20029;-83
2021/05/29 08:49:21;;;;;;;2.22;0.82;;;;;;;31.97;30.84;94704.69;10458297;28;20033;-83
2021/05/29 08:54:21;;;;;;;11.57;1.97;;;;;;;30.85;33.62;94706.34;10458004;28;20052;-83
2021/05/29 08:59:21;;;;;;;4.97;0.60;;;;;;;31.27;31.41;94695.38;10456669;28;20287;-83
2021/05/29 09:04:22;;;;;;;6.83;0.97;;;;;;;29.59;35.74;94703.91;10456314;28;20029;-83
2021/05/29 09:09:23;;;;;;;4.77;1.37;;;;;;;30.60;32.81;94687.06;10457445;28;20115;-83
2021/05/29 09:14:37;;;;;;;4.97;0.80;;;;;;;31.08;32.15;94674.50;10457707;28;20029;-83
2021/05/29 09:20:12;;;;;;;5.03;1.15;;;;;;;32.40;31.03;94675.63;10457496;28;20029;-83
2021/05/29 09:25:16;;;;;;;3.25;0.57;;;;;;;31.15;30.35;94670.88;10452422;28;20048;-83
2021/05/29 09:30:35;;;;;;;2.67;0.70;;;;;;;29.39;32.77;94675.88;10449181;28;20037;-83
2021/05/29 09:35:35;;;;;;;4.38;1.40;;;;;;;30.38;33.86;94668.88;10451809;28;20036;-82
2021/05/29 09:40:35;;;;;;;5.60;0.67;;;;;;;31.32;29.74;94658.81;10454783;28;20669;-83
2021/05/29 09:45:37;;;;;;;2.30;0.60;;;;;;;32.25;29.23;94656.34;10454184;28;20396;-83
2021/05/29 09:50:58;;;;;;;3.42;1.88;;;;;;;33.82;28.56;94651.63;10455303;28;20025;-86
2021/05/29 09:55:58;;;;;;;3.78;0.80;;;;;;;34.95;26.04;94648.16;10454132;28;20048;-84
2021/05/29 10:00:59;;;;;;;7.03;1.27;;;;;;;30.95;30.30;94635.31;10449919;28;20690;-85
2021/05/29 10:06:09;;;;;;;2.47;0.80;;;;;;;32.92;28.39;94633.59;10453178;28;20025;-86
2021/05/29 10:11:09;;;;;;;2.22;1.00;;;;;;;35.18;26.30;94627.66;10446111;28;20216;-86
2021/05/29 10:16:12;;;;;;;10.50;1.23;;;;;;;35.67;25.41;94637.25;10439951;28;20031;-78
2021/05/29 10:21:14;;;;;;;1.63;0.57;;;;;;;33.17;28.42;94627.63;10439995;28;20036;-78
2021/05/29 10:26:16;;;;;;;2.17;0.77;;;;;;;35.27;25.76;94612.31;10441845;28;20044;-78
2021/05/29 10:31:17;;;;;;;1.15;0.57;;;;;;;36.04;27.08;94621.88;10438042;28;20037;-78
2021/05/29 10:36:36;;;;;;;1.42;0.80;;;;;;;36.48;25.34;94618.66;10439072;28;20056;-78
2021/05/29 10:41:49;;;;;;;2.55;0.88;;;;;;;36.94;24.42;94616.47;10439539;28;20184;-77
2021/05/29 10:47:18;;;;;;;6.97;0.45;;;;;;;36.93;23.60;94619.72;10436576;28;20021;-78
2021/05/29 10:52:35;;;;;;;3.67;0.40;;;;;;;38.33;23.45;94614.19;10438522;28;20576;-78
2021/05/29 10:58:02;;;;;;;6.38;1.00;;;;;;;38.64;22.50;94619.84;10433764;28;20874;-78
2021/05/29 11:03:24;;;;;;;3.40;0.70;;;;;;;34.69;25.65;94610.81;10419207;28;20113;-78
2021/05/29 11:08:51;;;;;;;7.40;0.80;;;;;;;31.10;30.53;94615.78;10438203;28;20148;-77
2021/05/29 11:14:01;;;;;;;69.73;21.00;;;;;;;28.76;32.68;94620.06;10439890;28;20040;-77
2021/05/29 11:19:12;;;;;;;0.68;0.60;;;;;;;26.77;34.29;94610.75;10442163;28;20610;-77
2021/05/29 11:24:16;;;;;;;3.03;1.30;;;;;;;26.82;35.20;94611.56;10441548;28;20056;-77
2021/05/29 11:29:17;;;;;;;1.50;0.88;;;;;;;26.20;38.48;94618.44;10418056;28;20033;-77
2021/05/29 11:34:17;;;;;;;1.33;1.05;;;;;;;25.00;39.98;94613.25;10406997;28;20091;-77
2021/05/29 11:39:19;;;;;;;1.80;1.47;;;;;;;24.93;39.43;94607.63;10399246;28;20029;-77
2021/05/29 11:44:21;;;;;;;1.08;0.93;;;;;;;24.95;38.65;94605.31;10401411;28;20095;-77
2021/05/29 11:49:21;;;;;;;2.58;1.40;;;;;;;24.51;39.26;94597.50;10440785;28;20091;-78
2021/05/29 11:54:22;;;;;;;2.60;1.50;;;;;;;24.22;39.55;94599.72;10400195;28;20481;-78
2021/05/29 11:59:22;;;;;;;1.20;1.08;;;;;;;24.35;40.36;94592.91;10400215;28;20037;-77
2021/05/29 12:04:29;;;;;;;2.43;1.30;;;;;;;24.13;39.78;94586.22;10403050;28;20027;-79
2021/05/29 12:09:31;;;;;;;7.30;1.20;;;;;;;24.39;41.27;94588.28;10441664;28;20025;-79
2021/05/29 12:14:36;;;;;;;4.50;1.00;;;;;;;24.02;41.82;94583.28;10441583;28;20079;-79
2021/05/29 12:19:37;;;;;;;1.73;0.98;;;;;;;23.66;42.35;94588.03;10440862;28;20017;-78
2021/05/29 12:24:39;;;;;;;2.00;1.23;;;;;;;22.97;44.05;94588.47;10441825;28;20095;-79
2021/05/29 12:29:40;;;;;;;1.88;0.90;;;;;;;22.79;45.16;94588.06;10440149;28;20029;-79
2021/05/29 12:34:49;;;;;;;3.08;1.00;;;;;;;22.41;44.43;94583.19;10402470;28;20489;-79
2021/05/29 12:39:57;;;;;;;2.83;1.30;;;;;;;22.49;48.77;94574.81;10404839;28;20140;-79
2021/05/29 12:45:00;;;;;;;2.30;1.00;;;;;;;22.61;47.21;94573.94;10407677;28;20401;-79
2021/05/29 12:50:16;;;;;;;9.68;1.77;;;;;;;22.69;47.00;94563.94;10406420;28;20092;-79
2021/05/29 12:55:27;;;;;;;3.72;1.35;;;;;;;22.52;46.89;94565.91;10406027;28;20018;-79
2021/05/29 13:00:38;;;;;;;2.55;1.00;;;;;;;22.46;54.12;94559.06;10406021;28;20064;-79
2021/05/29 13:11:00;;;;;;;2.97;1.30;;;;;;;21.99;48.72;94557.88;10443966;28;20135;-79
2021/05/29 13:16:03;;;;;;;4.85;1.73;;;;;;;22.03;50.70;94557.94;10441780;28;20484;-78
2021/05/29 13:21:05;;;;;;;1.90;1.15;;;;;;;21.68;51.29;94561.31;10436678;28;20037;-79
2021/05/29 13:26:07;;;;;;;2.10;1.10;;;;;;;21.90;49.39;94553.72;10424539;28;20044;-79
2021/05/29 13:31:07;;;;;;;2.67;1.17;;;;;;;22.12;49.79;94557.81;10435415;28;20029;-78
2021/05/29 13:36:07;;;;;;;4.03;1.73;;;;;;;22.04;50.69;94553.28;10404337;28;20029;-78
2021/05/29 13:41:08;;;;;;;2.25;1.10;;;;;;;22.22;44.42;94554.53;10403853;28;20116;-78
2021/05/29 13:46:08;;;;;;;2.80;1.10;;;;;;;21.74;50.40;94557.22;10405733;28;20554;-78
2021/05/29 13:51:09;;;;;;;7.23;1.40;;;;;;;21.93;48.49;94556.53;10420811;28;20021;-78
2021/05/29 13:56:09;;;;;;;6.43;1.30;;;;;;;22.02;46.36;94557.16;10442611;28;20789;-79
2021/05/29 14:01:09;;;;;;;3.27;1.30;;;;;;;21.49;53.72;94564.69;10444486;28;20040;-78
2021/05/29 14:06:10;;;;;;;2.37;1.50;;;;;;;21.79;54.74;94569.81;10444396;28;20025;-78
2021/05/29 14:11:17;;;;;;;4.83;1.43;;;;;;;21.97;49.98;94562.88;10443068;28;20063;-78
2021/05/29 14:16:18;;;;;;;;;;;;;;;21.74;52.42;94567.34;10441886;28;20024;-73
2021/05/29 14:21:19;;;;;;;4.32;1.70;;;;;;;21.99;50.62;94563.34;10442164;28;19912;-73
2021/05/29 14:26:22;;;;;;;7.00;1.70;;;;;;;22.16;48.74;94573.16;10441573;28;20086;-73
2021/05/29 14:31:24;;;;;;;1.73;1.13;;;;;;;21.84;49.02;94561.38;10428365;28;20480;-73
2021/05/29 14:36:26;;;;;;;4.55;1.67;;;;;;;21.57;52.05;94577.41;10431609;28;20030;-74
2021/05/29 14:41:26;;;;;;;6.95;1.77;;;;;;;21.27;52.95;94574.97;10414620;28;20036;-73
2021/05/29 14:46:27;;;;;;;2.17;1.20;;;;;;;20.93;49.71;94566.19;10411536;28;20048;-74
2021/05/29 14:51:30;;;;;;;7.13;1.90;;;;;;;21.03;54.40;94572.28;10401324;28;20044;-73
2021/05/29 14:56:36;;;;;;;4.18;1.88;;;;;;;20.94;53.89;94570.47;10401918;28;20385;-74
2021/05/29 15:01:40;;;;;;;9.57;2.30;;;;;;;21.07;55.45;94573.19;10400919;28;20029;-74
2021/05/29 15:06:40;;;;;;;4.30;1.80;;;;;;;20.58;55.17;94574.81;10422060;28;20095;-74
2021/05/29 15:11:41;;;;;;;9.40;1.55;;;;;;;20.47;54.34;94579.09;10432273;28;20547;-73
2021/05/29 15:16:41;;;;;;;4.60;2.10;;;;;;;20.41;57.82;94581.25;10401005;28;20474;-74
2021/05/29 15:21:41;;;;;;;6.47;2.33;;;;;;;19.93;56.56;94589.00;10401272;28;20283;-74
2021/05/29 15:31:43;;;;;;;4.30;2.10;;;;;;;20.17;58.76;94592.94;10401177;28;20116;-74
2021/05/29 15:36:44;;;;;;;5.53;2.28;;;;;;;20.17;57.63;94587.47;10398982;28;20120;-74
2021/05/29 15:41:44;;;;;;;6.43;2.20;;;;;;;20.24;59.48;94592.41;10399772;28;20093;-73
2021/05/29 15:46:44;;;;;;;4.70;2.03;;;;;;;20.02;60.82;94593.59;10400318;28;20033;-73
2021/05/29 15:51:45;;;;;;;5.50;2.37;;;;;;;19.49;62.19;94604.16;10400571;28;20358;-73
2021/05/29 15:56:45;;;;;;;10.98;4.95;;;;;;;19.43;62.58;94607.06;10398671;28;20065;-73
2021/05/29 16:01:46;;;;;;;4.05;2.13;;;;;;;19.24;62.02;94609.44;10399866;28;20041;-73
2021/05/29 16:06:46;;;;;;;4.93;2.63;;;;;;;19.25;66.18;94617.28;10422103;28;20036;-73
2021/05/29 16:11:46;;;;;;;7.97;3.07;;;;;;;19.28;64.12;94615.84;10439638;28;20018;-73
2021/05/29 16:16:47;;;;;;;5.15;2.35;;;;;;;19.28;61.82;94624.00;10406388;28;20040;-73
2021/05/29 16:21:48;;;;;;;4.53;2.35;;;;;;;18.73;63.54;94620.31;10407694;28;20061;-73
2021/05/29 16:26:49;;;;;;;3.90;2.60;;;;;;;18.67;59.55;94637.94;10407158;28;20100;-73
2021/05/29 16:31:49;;;;;;;3.25;2.30;;;;;;;18.62;66.40;94644.38;10407628;28;20044;-73
2021/05/29 16:36:50;;;;;;;3.50;2.73;;;;;;;18.01;68.52;94637.16;10406782;28;20025;-73
2021/05/29 16:41:51;;;;;;;14.17;3.83;;;;;;;17.70;68.84;94649.00;10407435;28;20562;-73
2021/05/29 16:46:51;;;;;;;8.32;3.17;;;;;;;17.77;67.47;94652.03;10406734;28;20025;-73
2021/05/29 16:51:52;;;;;;;5.30;3.27;;;;;;;17.84;67.21;94648.06;10406698;28;20509;-73
2021/05/29 16:56:52;;;;;;;5.28;3.03;;;;;;;17.86;65.67;94662.09;10406231;28;20516;-73
2021/05/29 17:01:52;;;;;;;7.43;3.97;;;;;;;17.98;68.54;94667.72;10406418;28;20473;-73
2021/05/29 17:06:53;;;;;;;6.33;3.93;;;;;;;17.43;70.58;94669.94;10428594;28;20275;-73
2021/05/29 17:11:57;;;;;;;7.37;4.33;;;;;;;17.37;72.07;94671.22;10446788;28;20778;-74
2021/05/29 17:16:59;;;;;;;10.32;4.20;;;;;;;17.28;72.70;94672.34;10447463;28;20029;-73
2021/05/29 17:22:01;;;;;;;5.60;4.05;;;;;;;16.87;75.54;94682.41;10446554;28;20492;-73
2021/05/29 17:27:01;;;;;;;5.35;3.88;;;;;;;16.91;77.89;94691.53;10445567;28;20049;-73
2021/05/29 17:32:02;;;;;;;9.55;4.03;;;;;;;16.82;75.38;94688.78;10446124;28;20122;-73
2021/05/29 17:37:02;;;;;;;4.88;4.32;;;;;;;16.69;81.17;94695.13;10445794;28;20099;-73
2021/05/29 17:42:03;;;;;;;5.00;4.13;;;;;;;16.56;85.94;94699.53;10446214;28;20070;-73
2021/05/29 17:47:04;;;;;;;12.68;4.78;;;;;;;16.53;86.80;94692.00;10446240;28;20081;-73
2021/05/29 17:52:05;;;;;;;7.07;4.88;;;;;;;16.61;89.46;94693.19;10445596;28;20515;-73
2021/05/29 17:57:06;;;;;;;9.82;5.10;;;;;;;16.46;86.08;94694.38;10445664;28;20033;-73
2021/05/29 18:02:07;;;;;;;5.05;4.55;;;;;;;16.38;85.47;94696.72;10444888;28;20040;-73
2021/05/29 18:07:07;;;;;;;6.05;4.07;;;;;;;16.21;86.85;94705.56;10445154;28;20032;-74
2021/05/29 18:12:08;;;;;;;5.00;4.40;;;;;;;16.16;85.90;94707.59;10445012;28;20523;-73
2021/05/29 18:17:08;;;;;;;10.00;4.30;;;;;;;16.17;87.26;94712.72;10444643;28;20028;-73
2021/05/29 18:22:09;;;;;;;6.03;4.07;;;;;;;16.06;90.35;94724.91;10444688;28;20029;-73
2021/05/29 18:27:09;;;;;;;6.97;3.72;;;;;;;15.96;87.17;94725.16;10443170;28;20057;-73
2021/05/29 18:32:10;;;;;;;7.00;4.35;;;;;;;15.84;91.28;94741.97;10444337;28;20029;-73
2021/05/29 18:42:14;;;;;;;4.50;4.03;;;;;;;15.86;92.39;94750.59;10444596;28;20025;-73
2021/05/29 18:47:15;;;;;;;8.03;3.97;;;;;;;15.88;92.89;94761.94;10441925;28;20025;-73
2021/05/29 18:52:15;;;;;;;4.68;4.28;;;;;;;15.88;89.69;94765.44;10442239;28;20279;-73
2021/05/29 18:57:15;;;;;;;4.13;3.73;;;;;;;15.91;88.73;94760.50;10444299;28;20484;-73
2021/05/29 19:12:36;;;;;;;7.53;4.32;;;;;;;15.79;89.10;94783.53;10441260;28;20036;-73
2021/05/29 19:17:42;;;;;;;5.22;4.05;;;;;;;15.78;89.01;94779.19;10442238;28;20040;-73
2021/05/29 19:27:59;;;;;;;6.13;3.78;;;;;;;15.78;85.57;94789.22;10442275;28;20049;-73
2021/05/29 20:11:46;;;;;;;3.35;2.10;;;;;;;15.42;87.61;94803.50;10450126;28;20480;-73
2021/05/29 20:27:07;;;;;;;3.33;2.17;;;;;;;15.61;86.75;94803.41;10411914;28;20053;-73
2021/05/29 20:32:08;;;;;;;2.10;1.75;;;;;;;15.50;83.54;94797.38;10418441;28;20098;-73
2021/05/29 20:37:09;;;;;;;3.97;2.05;;;;;;;15.44;83.35;94799.41;10407500;28;20155;-73
2021/05/29 20:42:09;;;;;;;1.98;1.67;;;;;;;15.24;87.42;94799.81;10410893;28;20116;-73
2021/05/29 20:47:10;;;;;;;3.75;2.17;;;;;;;15.13;87.39;94797.31;10443206;28;20061;-73
2021/05/29 20:52:11;;;;;;;2.53;1.80;;;;;;;15.16;85.00;94796.69;10440850;28;20025;-72
2021/05/29 20:57:13;;;;;;;6.70;2.75;;;;;;;15.13;85.83;94805.44;10428072;28;20834;-73
2021/05/29 21:02:13;;;;;;;2.00;1.80;;;;;;;15.09;87.84;94804.41;10406333;28;20595;-73
2021/05/29 21:07:16;;;;;;;4.93;2.08;;;;;;;15.07;88.24;94792.28;10431654;28;20021;-73
2021/05/29 21:12:17;;;;;;;3.67;1.80;;;;;;;15.12;87.71;94795.69;10430853;28;20068;-72
2021/05/29 21:22:18;;;;;;;2.92;1.98;;;;;;;15.07;86.14;94789.56;10403851;28;20283;-73
2021/05/29 21:27:18;;;;;;;2.90;2.37;;;;;;;15.02;84.35;94788.56;10404417;28;20049;-73
2021/05/29 21:32:18;;;;;;;2.23;2.07;;;;;;;14.90;87.06;94784.75;10426068;28;20037;-73
2021/05/29 21:37:19;;;;;;;2.57;2.30;;;;;;;14.77;89.30;94781.72;10429605;28;20087;-73
2021/05/29 21:42:19;;;;;;;2.58;2.38;;;;;;;14.76;86.02;94784.72;10405060;28;20775;-73
2021/05/29 21:52:39;;;;;;;4.28;2.70;;;;;;;14.71;89.64;94780.22;10405204;28;20476;-72
2021/05/29 21:57:39;;;;;;;4.63;3.00;;;;;;;14.71;89.32;94785.63;10404992;28;20026;-73
2021/05/29 22:02:39;;;;;;;2.77;2.47;;;;;;;14.77;86.93;94787.13;10404350;28;20036;-74
2021/05/29 22:07:40;;;;;;;5.20;2.63;;;;;;;14.85;87.76;94785.66;10432756;28;20263;-73
2021/05/29 22:12:46;;;;;;;3.33;2.40;;;;;;;14.84;85.42;94779.44;10445179;28;20024;-73
2021/05/29 22:29:19;;;;;;;;;;;;;;;14.75;90.76;94783.94;10431304;28;20120;-73
2021/05/29 22:34:08;;;;;;;2.60;2.40;;;;;;;14.64;88.40;94786.03;10411794;28;19920;-72
2021/05/29 22:39:11;;;;;;;2.95;2.53;;;;;;;14.63;91.06;94781.69;10403218;28;20025;-73
2021/05/29 22:44:13;;;;;;;3.42;2.90;;;;;;;14.60;90.82;94781.47;10403007;28;20029;-72
2021/05/29 22:49:14;;;;;;;3.90;2.97;;;;;;;14.56;90.47;94785.88;10401805;28;20028;-72
2021/05/29 22:54:14;;;;;;;3.03;2.70;;;;;;;14.61;91.52;94783.88;10403134;28;20428;-72
2021/05/29 22:59:15;;;;;;;2.88;2.40;;;;;;;14.69;92.69;94775.13;10401941;28;20048;-72
2021/05/29 23:04:15;;;;;;;4.33;2.50;;;;;;;14.63;91.47;94772.78;10402408;28;20037;-73
2021/05/29 23:09:16;;;;;;;5.43;4.00;;;;;;;14.49;92.88;94773.53;10443531;28;20275;-72
2021/05/29 23:14:16;;;;;;;2.72;2.53;;;;;;;14.42;91.77;94762.28;10442467;28;20263;-72
2021/05/29 23:19:17;;;;;;;3.92;2.70;;;;;;;14.45;97.57;94760.91;10442560;28;20499;-72
2021/05/29 23:24:17;;;;;;;2.90;2.70;;;;;;;14.33;98.14;94751.38;10441707;28;20043;-71
2021/05/29 23:29:17;;;;;;;3.30;2.90;;;;;;;14.22;97.69;94749.13;10443067;28;20021;-72
2021/05/29 23:34:18;;;;;;;3.13;2.83;;;;;;;14.11;99.77;94748.50;10442449;28;20282;-72
2021/05/29 23:39:18;;;;;;;4.10;2.60;;;;;;;14.00;99.97;94745.16;10442247;28;20025;-72
2021/05/29 23:44:19;;;;;;;3.60;2.80;;;;;;;14.05;100.00;94745.06;10442507;28;20029;-72
2021/05/29 23:49:19;;;;;;;3.55;2.63;;;;;;;13.98;100.00;94744.63;10442130;28;20033;-72
2021/05/29 23:54:19;;;;;;;7.03;2.17;;;;;;;14.02;100.00;94745.66;10421758;28;20025;-72
2021/05/29 23:59:27;;;;;;;3.53;2.40;;;;;;;13.98;100.00;94736.53;10441860;28;20112;-72
